Yusho Cherry — 3ELM7 — position and weather

sailwx.info

Track history (hours):
 
Tides and Currents Weather Stations Pressure Air Temp Water Temp Dewpoint Dewpoint Depression Visibility Wind Speed Wind Dir Waves Ship Positions

Yusho Cherry

Last reported at 2018-Apr-24 14:00 UTC. Time now 2018-Apr-24 14:28 UTC.
Position N 33°59' E 130°34'.

Length 110 m; draft 8.5 m.

Type: Ship. MMSI: 372991000.

Date/timePositionNaut miles runAvg speedWind from/ knotsBaromVisibWave heightAir tempDewpointWater temp
2018-Apr-24 14:00N 33°59' E 130°34'4 8.9
2018-Apr-24 13:30N 34°01' E 130°39'510.6
2018-Apr-24 13:00N 34°04' E 130°45'4 8.2
2018-Apr-24 12:30N 34°02' E 130°49'4 8.9
2018-Apr-24 12:00N 33°59' E 130°53'4 8.3
2018-Apr-24 11:30N 33°55' E 130°54'3 7.0
2018-Apr-24 11:00N 33°57' E 130°57'4 8.4
2018-Apr-24 10:30N 33°58' E 131°02'5 9.7
2018-Apr-24 10:00N 33°55' E 131°06'510.1
2018-Apr-24 09:30N 33°52' E 131°11'510.2
2018-Apr-24 09:00N 33°51' E 131°17'510.3
2018-Apr-24 08:30N 33°50' E 131°23'510.1
2018-Apr-24 08:00N 33°49' E 131°29'510.4
2018-Apr-24 07:30N 33°48' E 131°35'510.8
2018-Apr-24 07:00N 33°47' E 131°42'5 9.8
2018-Apr-24 06:30N 33°44' E 131°47'611.4
2018-Apr-24 05:59N 33°39' E 131°50'511.5
2018-Apr-24 05:30N 33°34' E 131°53'611.6
2018-Apr-24 05:00N 33°28' E 131°56'5 9.5
2018-Apr-24 04:30N 33°24' E 131°59'13 9.8
2018-Apr-24 03:10N 33°34' E 132°10'210.2
2018-Apr-24 02:58N 33°35' E 132°12'510.3
2018-Apr-24 02:28N 33°38' E 132°17'510.5
2018-Apr-24 01:57N 33°42' E 132°22'511.2
2018-Apr-24 01:30N 33°45' E 132°26'611.8
2018-Apr-24 01:00N 33°49' E 132°31'611.8
2018-Apr-24 00:30N 33°53' E 132°36'611.9
2018-Apr-24 00:00N 33°57' E 132°42'1811.2
2018-Apr-23 22:25N 34°10' E 132°57'57 9.4
2018-Apr-23 16:21N 34°27' E 134°03'911.7
2018-Apr-23 15:33N 34°24' E 134°14'111.7
2018-Apr-23 15:30N 34°24' E 134°15'511.2
2018-Apr-23 15:00N 34°25' E 134°21'510.9
2018-Apr-23 14:30N 34°27' E 134°27'510.6
2018-Apr-23 14:01N 34°29' E 134°33'510.4
2018-Apr-23 13:31N 34°31' E 134°39'510.6
2018-Apr-23 13:00N 34°33' E 134°45'510.0
2018-Apr-23 12:30N 34°35' E 134°51'5 9.2
2018-Apr-23 12:01N 34°36' E 134°56'4 8.6
2018-Apr-23 11:30N 34°37' E 135°01'4 8.2
2018-Apr-23 11:00N 34°36' E 135°06'510.1
2018-Apr-23 10:30N 34°36' E 135°12'5 9.9
2018-Apr-23 10:01N 34°38' E 135°17'4 7.6
2018-Apr-23 09:31N 34°41' E 135°18'0 0.8
2018-Apr-23 09:00N 34°41' E 135°17'0 0.0
2018-Apr-23 08:30N 34°41' E 135°17'0 0.0
2018-Apr-23 08:00N 34°41' E 135°17'0 0.0
2018-Apr-23 07:30N 34°41' E 135°17'0 0.0
2018-Apr-23 07:00N 34°41' E 135°17'0 0.0
2018-Apr-23 06:30N 34°41' E 135°17'0 0.0
2018-Apr-23 06:00N 34°41' E 135°17'0 0.0
2018-Apr-23 05:30N 34°41' E 135°17'0 0.0
2018-Apr-23 05:00N 34°41' E 135°17'0 0.0
2018-Apr-23 04:30N 34°41' E 135°17'0 0.0
2018-Apr-23 04:00N 34°41' E 135°17'0 0.0
2018-Apr-23 03:30N 34°41' E 135°17'0 0.0
2018-Apr-23 03:00N 34°41' E 135°17'0 0.0
2018-Apr-23 02:30N 34°41' E 135°17'0 0.0
2018-Apr-23 02:00N 34°41' E 135°17'0 0.0
2018-Apr-23 01:30N 34°41' E 135°17'0 0.0
2018-Apr-23 01:00N 34°41' E 135°17'0 0.0
2018-Apr-23 00:30N 34°41' E 135°17'0 0.0
2018-Apr-23 00:00N 34°41' E 135°17'0 0.0
2018-Apr-22 23:30N 34°41' E 135°17'0 0.0
2018-Apr-22 23:00N 34°41' E 135°17'0 0.0
2018-Apr-22 22:30N 34°41' E 135°17'0 0.0
2018-Apr-22 22:00N 34°41' E 135°17'0 0.0
2018-Apr-22 21:30N 34°41' E 135°17'0 0.0
2018-Apr-22 21:00N 34°41' E 135°17'0 0.0
2018-Apr-22 20:30N 34°41' E 135°17'0 0.0
2018-Apr-22 20:00N 34°41' E 135°17'0 0.0
2018-Apr-22 19:30N 34°41' E 135°17'0 0.0
2018-Apr-22 19:00N 34°41' E 135°17'0 0.0
2018-Apr-22 18:30N 34°41' E 135°17'0 0.0
2018-Apr-22 18:00N 34°41' E 135°17'0 0.0
2018-Apr-22 17:30N 34°41' E 135°17'0 0.0
2018-Apr-22 17:00N 34°41' E 135°17'0 0.0
2018-Apr-22 16:30N 34°41' E 135°17'0 0.0
2018-Apr-22 16:00N 34°41' E 135°17'0 0.0
2018-Apr-22 15:30N 34°41' E 135°17'0 0.0
2018-Apr-22 15:00N 34°41' E 135°17'0 0.0
2018-Apr-22 14:30N 34°41' E 135°17'0 0.0
2018-Apr-22 14:00N 34°41' E 135°17'0 0.0
2018-Apr-22 13:30N 34°41' E 135°17'0 0.0
2018-Apr-22 13:00N 34°41' E 135°17'0 0.0
2018-Apr-22 12:30N 34°41' E 135°17'0 0.0
2018-Apr-22 12:00N 34°41' E 135°17'0 0.0
2018-Apr-22 11:30N 34°41' E 135°17'0 0.0
2018-Apr-22 11:00N 34°41' E 135°17'0 0.0
2018-Apr-22 10:30N 34°41' E 135°17'0 0.0
2018-Apr-22 10:00N 34°41' E 135°17'0 0.0
2018-Apr-22 09:30N 34°41' E 135°17'0 0.0
2018-Apr-22 09:00N 34°41' E 135°17'0 0.0
2018-Apr-22 08:30N 34°41' E 135°17'0 0.0
2018-Apr-22 08:00N 34°41' E 135°17'0 0.0
2018-Apr-22 07:30N 34°41' E 135°17'0 0.0
2018-Apr-22 07:00N 34°41' E 135°17'0 0.0
2018-Apr-22 06:30N 34°41' E 135°17'0 0.0
2018-Apr-22 06:00N 34°41' E 135°17'0 0.0
2018-Apr-22 05:30N 34°41' E 135°17'0 0.0
2018-Apr-22 05:00N 34°41' E 135°17'0 0.0
2018-Apr-22 04:30N 34°41' E 135°17'0 0.0
2018-Apr-22 04:00N 34°41' E 135°17'0 0.0
2018-Apr-22 03:30N 34°41' E 135°17'0 0.0
2018-Apr-22 03:00N 34°41' E 135°17'0 0.0
2018-Apr-22 02:30N 34°41' E 135°17'0 0.0
2018-Apr-22 02:00N 34°41' E 135°17'0 0.0
2018-Apr-22 01:30N 34°41' E 135°17'0 0.0
2018-Apr-22 01:00N 34°41' E 135°17'0 0.0
2018-Apr-22 00:30N 34°41' E 135°17'0 0.0
2018-Apr-22 00:00N 34°41' E 135°17'0 0.0
2018-Apr-21 23:30N 34°41' E 135°17'0 0.0
2018-Apr-21 23:00N 34°41' E 135°17'0 0.0
2018-Apr-21 22:30N 34°41' E 135°17'0 0.0
2018-Apr-21 22:00N 34°41' E 135°17'0 0.0
2018-Apr-21 21:30N 34°41' E 135°17'0 0.0
2018-Apr-21 21:00N 34°41' E 135°17'0 0.0
2018-Apr-21 20:30N 34°41' E 135°17'0 0.0
2018-Apr-21 20:00N 34°41' E 135°17'0 0.0
2018-Apr-21 19:30N 34°41' E 135°17'0 0.0
2018-Apr-21 19:00N 34°41' E 135°17'0 0.0
2018-Apr-21 18:30N 34°41' E 135°17'0 0.0
2018-Apr-21 18:00N 34°41' E 135°17'0 0.0
2018-Apr-21 17:30N 34°41' E 135°17'0 0.0
2018-Apr-21 17:00N 34°41' E 135°17'0 0.0
2018-Apr-21 16:30N 34°41' E 135°17'0 0.0
2018-Apr-21 16:00N 34°41' E 135°17'0 0.0
2018-Apr-21 15:30N 34°41' E 135°17'0 0.0
2018-Apr-21 15:00N 34°41' E 135°17'0 0.0
2018-Apr-21 14:30N 34°41' E 135°17'0 0.0
2018-Apr-21 14:00N 34°41' E 135°17'0 0.0
2018-Apr-21 13:30N 34°41' E 135°17'0 0.0
2018-Apr-21 13:00N 34°41' E 135°17'0 0.0
2018-Apr-21 12:30N 34°41' E 135°17'0 0.0
2018-Apr-21 12:00N 34°41' E 135°17'0 0.0
2018-Apr-21 11:30N 34°41' E 135°17'0 0.0
2018-Apr-21 11:00N 34°41' E 135°17'0 0.0
2018-Apr-21 10:30N 34°41' E 135°17'0 0.0
2018-Apr-21 10:00N 34°41' E 135°17'0 0.0
2018-Apr-21 09:30N 34°41' E 135°17'0 0.0
2018-Apr-21 09:00N 34°41' E 135°17'0 0.0
2018-Apr-21 08:30N 34°41' E 135°17'0 0.0
2018-Apr-21 08:00N 34°41' E 135°17'0 0.0
2018-Apr-21 07:30N 34°41' E 135°17'0 0.0
2018-Apr-21 07:00N 34°41' E 135°17'0 0.0
2018-Apr-21 06:30N 34°41' E 135°17'0 0.0
2018-Apr-21 06:00N 34°41' E 135°17'0 0.0
2018-Apr-21 05:30N 34°41' E 135°17'0 0.7
2018-Apr-21 05:00N 34°41' E 135°18'2 3.5
2018-Apr-21 04:30N 34°40' E 135°18'3 6.9
2018-Apr-21 04:00N 34°36' E 135°17'611.2
2018-Apr-21 03:30N 34°32' E 135°12'611.3
2018-Apr-21 03:00N 34°28' E 135°08'611.9
2018-Apr-21 02:30N 34°23' E 135°03'612.3
2018-Apr-21 02:00N 34°18' E 134°60'611.6
2018-Apr-21 01:30N 34°12' E 134°59'611.8
2018-Apr-21 01:00N 34°07' E 134°59'612.2
2018-Apr-21 00:30N 34°00' E 134°59'612.0
2018-Apr-21 00:00N 33°54' E 134°60'611.5
2018-Apr-20 23:30N 33°49' E 135°02'89 9.5
2018-Apr-20 14:08N 34°08' E 136°47'2710.8
2018-Apr-20 11:39N 34°31' E 137°02'210.4
2018-Apr-20 11:30N 34°33' E 137°01'611.0
2018-Apr-20 11:00N 34°36' E 136°56'510.9
2018-Apr-20 10:30N 34°39' E 136°51'611.1
2018-Apr-20 10:01N 34°44' E 136°47'611.1
2018-Apr-20 09:30N 34°49' E 136°46'611.1
2018-Apr-20 09:00N 34°55' E 136°46'510.5
2018-Apr-20 08:30N 34°60' E 136°49'3 5.8
2018-Apr-20 07:55N 35°03' E 136°51'0 0.1
2018-Apr-20 07:28N 35°02' E 136°51'0 0.0
2018-Apr-20 06:58N 35°02' E 136°51'0 0.0
2018-Apr-20 06:25N 35°02' E 136°51'0 0.0
2018-Apr-20 05:55N 35°02' E 136°51'0 0.0
2018-Apr-20 05:25N 35°02' E 136°51'0 0.0
2018-Apr-20 04:58N 35°02' E 136°51'0 0.0
2018-Apr-20 04:28N 35°02' E 136°51'0 0.0
2018-Apr-20 03:58N 35°02' E 136°51'0 0.0
2018-Apr-20 03:25N 35°02' E 136°51'0 0.0
2018-Apr-20 02:55N 35°02' E 136°51'0 0.0
2018-Apr-20 02:25N 35°02' E 136°51'0 0.0
2018-Apr-20 01:55N 35°02' E 136°51'0 0.0
2018-Apr-20 01:25N 35°02' E 136°51'0 0.0
2018-Apr-20 00:55N 35°02' E 136°51'0 0.0
2018-Apr-20 00:25N 35°02' E 136°51'0 0.0
2018-Apr-19 23:58N 35°02' E 136°51'0 0.0
2018-Apr-19 23:28N 35°02' E 136°51'0 0.0
2018-Apr-19 22:55N 35°02' E 136°51'0 0.0
2018-Apr-19 22:25N 35°02' E 136°51'0 0.2
2018-Apr-19 21:59N 35°03' E 136°51'1 1.5
2018-Apr-19 21:30N 35°02' E 136°51'2 5.0
2018-Apr-19 21:00N 34°60' E 136°49'510.1
2018-Apr-19 20:30N 34°56' E 136°46'2 2.9
2018-Apr-19 19:59N 34°55' E 136°44'0 0.1
2018-Apr-19 19:30N 34°55' E 136°44'0 0.1
2018-Apr-19 19:00N 34°55' E 136°44'0 0.0
2018-Apr-19 18:29N 34°55' E 136°44'0 0.0
2018-Apr-19 17:59N 34°55' E 136°44'0 0.0
2018-Apr-19 17:29N 34°55' E 136°44'0 0.0
2018-Apr-19 17:00N 34°55' E 136°44'0 0.1
2018-Apr-19 16:30N 34°55' E 136°44'3 5.6
2018-Apr-19 16:00N 34°52' E 136°46'511.0
2018-Apr-19 15:30N 34°47' E 136°47'611.0
2018-Apr-19 14:58N 34°42' E 136°50'510.8
2018-Apr-19 14:30N 34°38' E 136°54'1710.3
2018-Apr-19 12:52N 34°30' E 137°12'511.1
2018-Apr-19 12:27N 34°30' E 137°18'2211.1
2018-Apr-19 10:30N 34°31' E 137°44'510.9
2018-Apr-19 10:00N 34°31' E 137°51'611.0
2018-Apr-19 09:25N 34°31' E 137°58'510.7
2018-Apr-19 08:58N 34°31' E 138°04'510.6
2018-Apr-19 08:30N 34°31' E 138°10'510.9
2018-Apr-19 08:00N 34°31' E 138°17'611.2
2018-Apr-19 07:29N 34°32' E 138°24'610.6
2018-Apr-19 06:57N 34°32' E 138°31'510.3
2018-Apr-19 06:30N 34°32' E 138°36'510.6
2018-Apr-19 06:00N 34°32' E 138°43'510.5
2018-Apr-19 05:30N 34°32' E 138°49'5 9.9
2018-Apr-19 05:00N 34°32' E 138°55'5 9.0
2018-Apr-19 04:29N 34°35' E 138°60'510.2
2018-Apr-19 03:59N 34°38' E 139°04'9 9.7
2018-Apr-19 03:03N 34°45' E 139°12'010.4
2018-Apr-19 03:00N 34°45' E 139°12'510.3
2018-Apr-19 02:30N 34°49' E 139°16'5 9.6
2018-Apr-19 02:00N 34°52' E 139°21'5 9.7
2018-Apr-19 01:30N 34°55' E 139°26'510.5
2018-Apr-19 01:00N 34°58' E 139°31'510.5
2018-Apr-19 00:31N 35°01' E 139°36'611.5
2018-Apr-18 23:59N 35°05' E 139°42'511.2
2018-Apr-18 23:29N 35°09' E 139°46'611.9
2018-Apr-18 23:00N 35°15' E 139°46'612.0
2018-Apr-18 22:30N 35°20' E 139°43'510.5
2018-Apr-18 22:00N 35°25' E 139°45'5 9.2
2018-Apr-18 21:31N 35°23' E 139°50'3 6.3
2018-Apr-18 21:00N 35°22' E 139°53'0 0.0
2018-Apr-18 20:25N 35°22' E 139°53'0 0.0
2018-Apr-18 19:55N 35°22' E 139°53'0 0.0
2018-Apr-18 19:28N 35°22' E 139°53'0 0.0
2018-Apr-18 18:58N 35°22' E 139°53'0 0.0
2018-Apr-18 18:28N 35°22' E 139°53'0 0.0
2018-Apr-18 17:58N 35°22' E 139°53'0 0.0
2018-Apr-18 17:26N 35°22' E 139°53'0 0.0
2018-Apr-18 16:59N 35°22' E 139°53'0 0.0
2018-Apr-18 16:28N 35°22' E 139°53'0 0.0
2018-Apr-18 15:58N 35°22' E 139°53'0 0.0
2018-Apr-18 15:29N 35°22' E 139°53'0 0.0
2018-Apr-18 14:55N 35°22' E 139°53'0 0.0
2018-Apr-18 14:28N 35°22' E 139°53'0 0.0
2018-Apr-18 13:58N 35°22' E 139°53'0 0.0
2018-Apr-18 13:28N 35°22' E 139°53'0 0.0
2018-Apr-18 12:58N 35°22' E 139°53'0 0.0
2018-Apr-18 12:28N 35°22' E 139°53'0 0.0
2018-Apr-18 11:58N 35°22' E 139°53'0 0.0
2018-Apr-18 11:29N 35°22' E 139°53'0 0.0
2018-Apr-18 10:58N 35°22' E 139°53'0 0.0
2018-Apr-18 10:29N 35°22' E 139°53'0 0.0
2018-Apr-18 09:52N 35°22' E 139°53'0 0.0
2018-Apr-18 09:25N 35°22' E 139°53'0 0.0
2018-Apr-18 08:59N 35°22' E 139°53'0 0.0
2018-Apr-18 08:25N 35°22' E 139°53'0 0.0
2018-Apr-18 07:58N 35°22' E 139°53'0 0.0
2018-Apr-18 07:28N 35°22' E 139°53'0 0.0
2018-Apr-18 06:58N 35°22' E 139°53'0 0.0
2018-Apr-18 06:25N 35°22' E 139°53'0 0.0
2018-Apr-18 05:59N 35°22' E 139°53'0 0.0
2018-Apr-18 05:29N 35°22' E 139°53'0 0.0
2018-Apr-18 04:58N 35°22' E 139°53'0 0.0
2018-Apr-18 04:25N 35°22' E 139°53'0 0.0
2018-Apr-18 03:55N 35°22' E 139°53'0 0.0
2018-Apr-18 03:28N 35°22' E 139°53'0 0.0
2018-Apr-18 02:55N 35°22' E 139°53'0 0.0
2018-Apr-18 02:26N 35°22' E 139°53'0 0.0
2018-Apr-18 01:55N 35°22' E 139°53'0 0.0
2018-Apr-18 01:25N 35°22' E 139°53'0 0.0
2018-Apr-18 00:59N 35°22' E 139°53'0 0.0
2018-Apr-18 00:26N 35°22' E 139°53'0 0.0
2018-Apr-17 23:56N 35°22' E 139°53'0 0.0
2018-Apr-17 23:29N 35°22' E 139°53'0 0.0
2018-Apr-17 22:55N 35°22' E 139°53'0 0.0
2018-Apr-17 22:26N 35°22' E 139°53'0 0.0
2018-Apr-17 21:59N 35°22' E 139°53'0 0.0
2018-Apr-17 21:28N 35°22' E 139°53'0 0.0
2018-Apr-17 20:58N 35°22' E 139°53'0 0.0
2018-Apr-17 20:29N 35°22' E 139°53'0 0.0
2018-Apr-17 19:59N 35°22' E 139°53'0 0.0
2018-Apr-17 19:23N 35°22' E 139°53'0 0.0
2018-Apr-17 18:59N 35°22' E 139°53'0 0.0
2018-Apr-17 18:23N 35°22' E 139°53'0 0.0
2018-Apr-17 17:56N 35°22' E 139°53'0 0.0
2018-Apr-17 17:29N 35°22' E 139°53'0 0.0
2018-Apr-17 16:59N 35°22' E 139°53'0 0.0
2018-Apr-17 16:29N 35°22' E 139°53'0 0.0
2018-Apr-17 15:59N 35°22' E 139°53'0 0.0
2018-Apr-17 15:28N 35°22' E 139°53'0 0.0
2018-Apr-17 14:53N 35°22' E 139°53'0 0.0
2018-Apr-17 14:28N 35°22' E 139°53'0 0.0
2018-Apr-17 13:56N 35°22' E 139°53'0 0.0
2018-Apr-17 13:26N 35°22' E 139°53'0 0.0
2018-Apr-17 12:59N 35°22' E 139°53'0 0.0
2018-Apr-17 12:29N 35°22' E 139°53'0 0.0
2018-Apr-17 11:59N 35°22' E 139°53'0 0.0
2018-Apr-17 11:25N 35°22' E 139°53'0 0.0
2018-Apr-17 10:59N 35°22' E 139°53'0 0.0
2018-Apr-17 10:29N 35°22' E 139°53'0 0.0
2018-Apr-17 09:59N 35°22' E 139°53'0 0.0
2018-Apr-17 09:29N 35°22' E 139°53'0 0.0
2018-Apr-17 08:59N 35°22' E 139°53'0 0.0
2018-Apr-17 08:29N 35°22' E 139°53'0 0.0
2018-Apr-17 07:53N 35°22' E 139°53'0 0.0
2018-Apr-17 07:29N 35°22' E 139°53'0 0.0
2018-Apr-17 06:59N 35°22' E 139°53'0 0.0
2018-Apr-17 06:29N 35°22' E 139°53'0 0.0
2018-Apr-17 05:50N 35°22' E 139°53'0 0.0
2018-Apr-17 05:26N 35°22' E 139°53'0 0.0
2018-Apr-17 04:55N 35°22' E 139°53'0 0.0
2018-Apr-17 04:25N 35°22' E 139°53'0 0.0
2018-Apr-17 03:59N 35°22' E 139°53'0 0.0
2018-Apr-17 03:28N 35°22' E 139°53'0 0.0
2018-Apr-17 02:56N 35°22' E 139°53'0 0.0
2018-Apr-17 02:26N 35°22' E 139°53'0 0.0
2018-Apr-17 01:50N 35°22' E 139°53'0 0.0
2018-Apr-17 01:22N 35°22' E 139°53'0 0.0
2018-Apr-17 00:58N 35°22' E 139°53'0 0.0
2018-Apr-17 00:28N 35°22' E 139°53'0 0.0
2018-Apr-16 23:58N 35°22' E 139°53'0 0.0
2018-Apr-16 23:28N 35°22' E 139°53'0 0.0
2018-Apr-16 22:58N 35°22' E 139°53'0 0.1
2018-Apr-16 22:26N 35°22' E 139°53'0 0.1
2018-Apr-16 21:56N 35°22' E 139°53'0 0.0
2018-Apr-16 21:25N 35°22' E 139°53'0 0.0
2018-Apr-16 20:58N 35°22' E 139°53'0 0.0
2018-Apr-16 20:28N 35°22' E 139°53'0 0.0
2018-Apr-16 19:58N 35°22' E 139°53'0 0.0
2018-Apr-16 19:28N 35°22' E 139°53'0 0.0
2018-Apr-16 18:59N 35°22' E 139°53'0 0.0
2018-Apr-16 18:28N 35°22' E 139°53'0 0.0
2018-Apr-16 17:58N 35°22' E 139°53'0 0.0
2018-Apr-16 17:28N 35°22' E 139°53'0 0.0
2018-Apr-16 16:59N 35°22' E 139°53'0 0.0
2018-Apr-16 16:29N 35°22' E 139°53'0 0.0
2018-Apr-16 15:59N 35°22' E 139°53'0 0.0
2018-Apr-16 15:28N 35°22' E 139°53'0 0.0
2018-Apr-16 14:59N 35°22' E 139°53'0 0.0
2018-Apr-16 14:28N 35°22' E 139°53'0 0.0
2018-Apr-16 13:58N 35°22' E 139°53'0 0.0
2018-Apr-16 13:28N 35°22' E 139°53'0 0.0
2018-Apr-16 12:58N 35°22' E 139°53'0 0.0
2018-Apr-16 12:28N 35°22' E 139°53'0 0.0
2018-Apr-16 11:58N 35°22' E 139°53'0 0.0
2018-Apr-16 11:28N 35°22' E 139°53'0 0.0
2018-Apr-16 10:59N 35°22' E 139°53'0 0.0
2018-Apr-16 10:29N 35°22' E 139°53'0 0.0
2018-Apr-16 09:58N 35°22' E 139°53'0 0.0
2018-Apr-16 09:25N 35°22' E 139°53'0 0.0
2018-Apr-16 08:58N 35°22' E 139°53'0 0.0
2018-Apr-16 08:28N 35°22' E 139°53'0 0.0
2018-Apr-16 07:58N 35°22' E 139°53'0 0.0
2018-Apr-16 07:29N 35°22' E 139°53'0 0.0
2018-Apr-16 06:58N 35°22' E 139°53'0 0.0
2018-Apr-16 06:28N 35°22' E 139°53'0 0.0
2018-Apr-16 05:58N 35°22' E 139°53'0 0.0
2018-Apr-16 05:28N 35°22' E 139°53'0 0.0
2018-Apr-16 04:58N 35°22' E 139°53'0 0.0
2018-Apr-16 04:28N 35°22' E 139°53'0 0.0
2018-Apr-16 03:59N 35°22' E 139°53'0 0.0
2018-Apr-16 03:28N 35°22' E 139°53'0 0.0
2018-Apr-16 02:58N 35°22' E 139°53'0 0.0
2018-Apr-16 02:28N 35°22' E 139°53'0 0.0
2018-Apr-16 01:55N 35°22' E 139°53'0 0.0
2018-Apr-16 01:28N 35°22' E 139°53'0 0.0
2018-Apr-16 00:58N 35°22' E 139°53'0 0.0
2018-Apr-16 00:28N 35°22' E 139°53'0 0.0
2018-Apr-15 23:58N 35°22' E 139°53'0 0.0
2018-Apr-15 23:26N 35°22' E 139°53'0 0.0
2018-Apr-15 22:58N 35°22' E 139°53'0 0.0
2018-Apr-15 22:28N 35°22' E 139°53'0 0.0
2018-Apr-15 21:58N 35°22' E 139°53'0 0.0
2018-Apr-15 21:28N 35°22' E 139°53'0 0.0
2018-Apr-15 20:59N 35°22' E 139°53'0 0.0
2018-Apr-15 20:29N 35°22' E 139°53'0 0.0
2018-Apr-15 19:58N 35°22' E 139°53'0 0.0
2018-Apr-15 19:28N 35°22' E 139°53'0 0.0
2018-Apr-15 18:58N 35°22' E 139°53'0 0.0
2018-Apr-15 18:28N 35°22' E 139°53'0 0.0
2018-Apr-15 17:59N 35°22' E 139°53'0 0.0
2018-Apr-15 17:28N 35°22' E 139°53'0 0.0
2018-Apr-15 16:58N 35°22' E 139°53'0 0.0
2018-Apr-15 16:28N 35°22' E 139°53'0 0.0
2018-Apr-15 15:58N 35°22' E 139°53'0 0.0
2018-Apr-15 15:29N 35°22' E 139°53'0 0.0
2018-Apr-15 14:55N 35°22' E 139°53'0 0.0
2018-Apr-15 14:29N 35°22' E 139°53'0 0.0
2018-Apr-15 13:58N 35°22' E 139°53'0 0.0
2018-Apr-15 13:28N 35°22' E 139°53'0 0.0
2018-Apr-15 12:58N 35°22' E 139°53'0 0.0
2018-Apr-15 12:28N 35°22' E 139°53'0 0.0
2018-Apr-15 11:55N 35°22' E 139°53'0 0.0
2018-Apr-15 11:28N 35°22' E 139°53'0 0.0
2018-Apr-15 10:58N 35°22' E 139°53'0 0.0
2018-Apr-15 10:28N 35°22' E 139°53'0 0.0
2018-Apr-15 09:58N 35°22' E 139°53'0 0.0
2018-Apr-15 09:28N 35°22' E 139°53'0 0.0
2018-Apr-15 08:59N 35°22' E 139°53'0 0.0
2018-Apr-15 08:28N 35°22' E 139°53'0 0.0
2018-Apr-15 07:58N 35°22' E 139°53'0 0.0
2018-Apr-15 07:29N 35°22' E 139°53'0 0.0
2018-Apr-15 06:58N 35°22' E 139°53'0 0.0
2018-Apr-15 06:29N 35°22' E 139°53'0 0.0
2018-Apr-15 05:55N 35°22' E 139°53'0 0.0
2018-Apr-15 05:28N 35°22' E 139°53'0 0.0
2018-Apr-15 04:58N 35°22' E 139°53'0 0.0
2018-Apr-15 04:28N 35°22' E 139°53'0 0.0
2018-Apr-15 03:59N 35°22' E 139°53'0 0.0
2018-Apr-15 03:28N 35°22' E 139°53'0 0.0
2018-Apr-15 02:59N 35°22' E 139°53'0 0.0
2018-Apr-15 02:28N 35°22' E 139°53'0 0.0
2018-Apr-15 01:58N 35°22' E 139°53'0 0.0
2018-Apr-15 01:28N 35°22' E 139°53'0 0.0
2018-Apr-15 00:56N 35°22' E 139°53'0 0.0
2018-Apr-15 00:28N 35°22' E 139°53'0 0.0
2018-Apr-14 23:59N 35°22' E 139°53'0 0.0
2018-Apr-14 23:28N 35°22' E 139°53'0 0.0
2018-Apr-14 22:58N 35°22' E 139°53'0 0.0
2018-Apr-14 22:28N 35°22' E 139°53'0 0.0
2018-Apr-14 21:59N 35°22' E 139°53'0 0.0
2018-Apr-14 21:28N 35°22' E 139°53'0 0.0
2018-Apr-14 20:59N 35°22' E 139°53'0 0.0
2018-Apr-14 20:28N 35°22' E 139°53'0 0.0
2018-Apr-14 19:59N 35°22' E 139°53'0 0.0
2018-Apr-14 19:28N 35°22' E 139°53'0 0.0
2018-Apr-14 18:59N 35°22' E 139°53'0 0.0
2018-Apr-14 18:28N 35°22' E 139°53'0 0.0
2018-Apr-14 17:58N 35°22' E 139°53'0 0.0
2018-Apr-14 17:28N 35°22' E 139°53'0 0.0
2018-Apr-14 16:59N 35°22' E 139°53'0 0.0
2018-Apr-14 16:28N 35°22' E 139°53'0 0.0
2018-Apr-14 15:56N 35°22' E 139°53'0 0.0
2018-Apr-14 15:29N 35°22' E 139°53'0 0.0
2018-Apr-14 14:58N 35°22' E 139°53'0 0.0
2018-Apr-14 14:28N 35°22' E 139°53'  
Track history (hours):
 
Tides and Currents Weather Stations Pressure Air Temp Water Temp Dewpoint Dewpoint Depression Visibility Wind Speed Wind Dir Waves Ship Positions

Yusho Cherry

Last reported at 2018-Apr-24 14:00 UTC. Time now 2018-Apr-24 14:28 UTC.
Position N 33°59' E 130°34'.

Length 110 m; draft 8.5 m.

Type: Ship. MMSI: 372991000.

Date/timePositionNaut miles runAvg speedWind from/ knotsBaromVisibWave heightAir tempDewpointWater temp
2018-Apr-24 14:00N 33°59' E 130°34'4 8.9
2018-Apr-24 13:30N 34°01' E 130°39'510.6
2018-Apr-24 13:00N 34°04' E 130°45'4 8.2
2018-Apr-24 12:30N 34°02' E 130°49'4 8.9
2018-Apr-24 12:00N 33°59' E 130°53'4 8.3
2018-Apr-24 11:30N 33°55' E 130°54'3 7.0
2018-Apr-24 11:00N 33°57' E 130°57'4 8.4
2018-Apr-24 10:30N 33°58' E 131°02'5 9.7
2018-Apr-24 10:00N 33°55' E 131°06'510.1
2018-Apr-24 09:30N 33°52' E 131°11'510.2
2018-Apr-24 09:00N 33°51' E 131°17'510.3
2018-Apr-24 08:30N 33°50' E 131°23'510.1
2018-Apr-24 08:00N 33°49' E 131°29'510.4
2018-Apr-24 07:30N 33°48' E 131°35'510.8
2018-Apr-24 07:00N 33°47' E 131°42'5 9.8
2018-Apr-24 06:30N 33°44' E 131°47'611.4
2018-Apr-24 05:59N 33°39' E 131°50'511.5
2018-Apr-24 05:30N 33°34' E 131°53'611.6
2018-Apr-24 05:00N 33°28' E 131°56'5 9.5
2018-Apr-24 04:30N 33°24' E 131°59'13 9.8
2018-Apr-24 03:10N 33°34' E 132°10'210.2
2018-Apr-24 02:58N 33°35' E 132°12'510.3
2018-Apr-24 02:28N 33°38' E 132°17'510.5
2018-Apr-24 01:57N 33°42' E 132°22'511.2
2018-Apr-24 01:30N 33°45' E 132°26'611.8
2018-Apr-24 01:00N 33°49' E 132°31'611.8
2018-Apr-24 00:30N 33°53' E 132°36'611.9
2018-Apr-24 00:00N 33°57' E 132°42'1811.2
2018-Apr-23 22:25N 34°10' E 132°57'57 9.4
2018-Apr-23 16:21N 34°27' E 134°03'911.7
2018-Apr-23 15:33N 34°24' E 134°14'111.7
2018-Apr-23 15:30N 34°24' E 134°15'511.2
2018-Apr-23 15:00N 34°25' E 134°21'510.9
2018-Apr-23 14:30N 34°27' E 134°27'510.6
2018-Apr-23 14:01N 34°29' E 134°33'510.4
2018-Apr-23 13:31N 34°31' E 134°39'510.6
2018-Apr-23 13:00N 34°33' E 134°45'510.0
2018-Apr-23 12:30N 34°35' E 134°51'5 9.2
2018-Apr-23 12:01N 34°36' E 134°56'4 8.6
2018-Apr-23 11:30N 34°37' E 135°01'4 8.2
2018-Apr-23 11:00N 34°36' E 135°06'510.1
2018-Apr-23 10:30N 34°36' E 135°12'5 9.9
2018-Apr-23 10:01N 34°38' E 135°17'4 7.6
2018-Apr-23 09:31N 34°41' E 135°18'0 0.8
2018-Apr-23 09:00N 34°41' E 135°17'0 0.0
2018-Apr-23 08:30N 34°41' E 135°17'0 0.0
2018-Apr-23 08:00N 34°41' E 135°17'0 0.0
2018-Apr-23 07:30N 34°41' E 135°17'0 0.0
2018-Apr-23 07:00N 34°41' E 135°17'0 0.0
2018-Apr-23 06:30N 34°41' E 135°17'0 0.0
2018-Apr-23 06:00N 34°41' E 135°17'0 0.0
2018-Apr-23 05:30N 34°41' E 135°17'0 0.0
2018-Apr-23 05:00N 34°41' E 135°17'0 0.0
2018-Apr-23 04:30N 34°41' E 135°17'0 0.0
2018-Apr-23 04:00N 34°41' E 135°17'0 0.0
2018-Apr-23 03:30N 34°41' E 135°17'0 0.0
2018-Apr-23 03:00N 34°41' E 135°17'0 0.0
2018-Apr-23 02:30N 34°41' E 135°17'0 0.0
2018-Apr-23 02:00N 34°41' E 135°17'0 0.0
2018-Apr-23 01:30N 34°41' E 135°17'0 0.0
2018-Apr-23 01:00N 34°41' E 135°17'0 0.0
2018-Apr-23 00:30N 34°41' E 135°17'0 0.0
2018-Apr-23 00:00N 34°41' E 135°17'0 0.0
2018-Apr-22 23:30N 34°41' E 135°17'0 0.0
2018-Apr-22 23:00N 34°41' E 135°17'0 0.0
2018-Apr-22 22:30N 34°41' E 135°17'0 0.0
2018-Apr-22 22:00N 34°41' E 135°17'0 0.0
2018-Apr-22 21:30N 34°41' E 135°17'0 0.0
2018-Apr-22 21:00N 34°41' E 135°17'0 0.0
2018-Apr-22 20:30N 34°41' E 135°17'0 0.0
2018-Apr-22 20:00N 34°41' E 135°17'0 0.0
2018-Apr-22 19:30N 34°41' E 135°17'0 0.0
2018-Apr-22 19:00N 34°41' E 135°17'0 0.0
2018-Apr-22 18:30N 34°41' E 135°17'0 0.0
2018-Apr-22 18:00N 34°41' E 135°17'0 0.0
2018-Apr-22 17:30N 34°41' E 135°17'0 0.0
2018-Apr-22 17:00N 34°41' E 135°17'0 0.0
2018-Apr-22 16:30N 34°41' E 135°17'0 0.0
2018-Apr-22 16:00N 34°41' E 135°17'0 0.0
2018-Apr-22 15:30N 34°41' E 135°17'0 0.0
2018-Apr-22 15:00N 34°41' E 135°17'0 0.0
2018-Apr-22 14:30N 34°41' E 135°17'0 0.0
2018-Apr-22 14:00N 34°41' E 135°17'0 0.0
2018-Apr-22 13:30N 34°41' E 135°17'0 0.0
2018-Apr-22 13:00N 34°41' E 135°17'0 0.0
2018-Apr-22 12:30N 34°41' E 135°17'0 0.0
2018-Apr-22 12:00N 34°41' E 135°17'0 0.0
2018-Apr-22 11:30N 34°41' E 135°17'0 0.0
2018-Apr-22 11:00N 34°41' E 135°17'0 0.0
2018-Apr-22 10:30N 34°41' E 135°17'0 0.0
2018-Apr-22 10:00N 34°41' E 135°17'0 0.0
2018-Apr-22 09:30N 34°41' E 135°17'0 0.0
2018-Apr-22 09:00N 34°41' E 135°17'0 0.0
2018-Apr-22 08:30N 34°41' E 135°17'0 0.0
2018-Apr-22 08:00N 34°41' E 135°17'0 0.0
2018-Apr-22 07:30N 34°41' E 135°17'0 0.0
2018-Apr-22 07:00N 34°41' E 135°17'0 0.0
2018-Apr-22 06:30N 34°41' E 135°17'0 0.0
2018-Apr-22 06:00N 34°41' E 135°17'0 0.0
2018-Apr-22 05:30N 34°41' E 135°17'0 0.0
2018-Apr-22 05:00N 34°41' E 135°17'0 0.0
2018-Apr-22 04:30N 34°41' E 135°17'0 0.0
2018-Apr-22 04:00N 34°41' E 135°17'0 0.0
2018-Apr-22 03:30N 34°41' E 135°17'0 0.0
2018-Apr-22 03:00N 34°41' E 135°17'0 0.0
2018-Apr-22 02:30N 34°41' E 135°17'0 0.0
2018-Apr-22 02:00N 34°41' E 135°17'0 0.0
2018-Apr-22 01:30N 34°41' E 135°17'0 0.0
2018-Apr-22 01:00N 34°41' E 135°17'0 0.0
2018-Apr-22 00:30N 34°41' E 135°17'0 0.0
2018-Apr-22 00:00N 34°41' E 135°17'0 0.0
2018-Apr-21 23:30N 34°41' E 135°17'0 0.0
2018-Apr-21 23:00N 34°41' E 135°17'0 0.0
2018-Apr-21 22:30N 34°41' E 135°17'0 0.0
2018-Apr-21 22:00N 34°41' E 135°17'0 0.0
2018-Apr-21 21:30N 34°41' E 135°17'0 0.0
2018-Apr-21 21:00N 34°41' E 135°17'0 0.0
2018-Apr-21 20:30N 34°41' E 135°17'0 0.0
2018-Apr-21 20:00N 34°41' E 135°17'0 0.0
2018-Apr-21 19:30N 34°41' E 135°17'0 0.0
2018-Apr-21 19:00N 34°41' E 135°17'0 0.0
2018-Apr-21 18:30N 34°41' E 135°17'0 0.0
2018-Apr-21 18:00N 34°41' E 135°17'0 0.0
2018-Apr-21 17:30N 34°41' E 135°17'0 0.0
2018-Apr-21 17:00N 34°41' E 135°17'0 0.0
2018-Apr-21 16:30N 34°41' E 135°17'0 0.0
2018-Apr-21 16:00N 34°41' E 135°17'0 0.0
2018-Apr-21 15:30N 34°41' E 135°17'0 0.0
2018-Apr-21 15:00N 34°41' E 135°17'0 0.0
2018-Apr-21 14:30N 34°41' E 135°17'0 0.0
2018-Apr-21 14:00N 34°41' E 135°17'0 0.0
2018-Apr-21 13:30N 34°41' E 135°17'0 0.0
2018-Apr-21 13:00N 34°41' E 135°17'0 0.0
2018-Apr-21 12:30N 34°41' E 135°17'0 0.0
2018-Apr-21 12:00N 34°41' E 135°17'0 0.0
2018-Apr-21 11:30N 34°41' E 135°17'0 0.0
2018-Apr-21 11:00N 34°41' E 135°17'0 0.0
2018-Apr-21 10:30N 34°41' E 135°17'0 0.0
2018-Apr-21 10:00N 34°41' E 135°17'0 0.0
2018-Apr-21 09:30N 34°41' E 135°17'0 0.0
2018-Apr-21 09:00N 34°41' E 135°17'0 0.0
2018-Apr-21 08:30N 34°41' E 135°17'0 0.0
2018-Apr-21 08:00N 34°41' E 135°17'0 0.0
2018-Apr-21 07:30N 34°41' E 135°17'0 0.0
2018-Apr-21 07:00N 34°41' E 135°17'0 0.0
2018-Apr-21 06:30N 34°41' E 135°17'0 0.0
2018-Apr-21 06:00N 34°41' E 135°17'0 0.0
2018-Apr-21 05:30N 34°41' E 135°17'0 0.7
2018-Apr-21 05:00N 34°41' E 135°18'2 3.5
2018-Apr-21 04:30N 34°40' E 135°18'3 6.9
2018-Apr-21 04:00N 34°36' E 135°17'611.2
2018-Apr-21 03:30N 34°32' E 135°12'611.3
2018-Apr-21 03:00N 34°28' E 135°08'611.9
2018-Apr-21 02:30N 34°23' E 135°03'612.3
2018-Apr-21 02:00N 34°18' E 134°60'611.6
2018-Apr-21 01:30N 34°12' E 134°59'611.8
2018-Apr-21 01:00N 34°07' E 134°59'612.2
2018-Apr-21 00:30N 34°00' E 134°59'612.0
2018-Apr-21 00:00N 33°54' E 134°60'611.5
2018-Apr-20 23:30N 33°49' E 135°02'89 9.5
2018-Apr-20 14:08N 34°08' E 136°47'2710.8
2018-Apr-20 11:39N 34°31' E 137°02'210.4
2018-Apr-20 11:30N 34°33' E 137°01'611.0
2018-Apr-20 11:00N 34°36' E 136°56'510.9
2018-Apr-20 10:30N 34°39' E 136°51'611.1
2018-Apr-20 10:01N 34°44' E 136°47'611.1
2018-Apr-20 09:30N 34°49' E 136°46'611.1
2018-Apr-20 09:00N 34°55' E 136°46'510.5
2018-Apr-20 08:30N 34°60' E 136°49'3 5.8
2018-Apr-20 07:55N 35°03' E 136°51'0 0.1
2018-Apr-20 07:28N 35°02' E 136°51'0 0.0
2018-Apr-20 06:58N 35°02' E 136°51'0 0.0
2018-Apr-20 06:25N 35°02' E 136°51'0 0.0
2018-Apr-20 05:55N 35°02' E 136°51'0 0.0
2018-Apr-20 05:25N 35°02' E 136°51'0 0.0
2018-Apr-20 04:58N 35°02' E 136°51'0 0.0
2018-Apr-20 04:28N 35°02' E 136°51'0 0.0
2018-Apr-20 03:58N 35°02' E 136°51'0 0.0
2018-Apr-20 03:25N 35°02' E 136°51'0 0.0
2018-Apr-20 02:55N 35°02' E 136°51'0 0.0
2018-Apr-20 02:25N 35°02' E 136°51'0 0.0
2018-Apr-20 01:55N 35°02' E 136°51'0 0.0
2018-Apr-20 01:25N 35°02' E 136°51'0 0.0
2018-Apr-20 00:55N 35°02' E 136°51'0 0.0
2018-Apr-20 00:25N 35°02' E 136°51'0 0.0
2018-Apr-19 23:58N 35°02' E 136°51'0 0.0
2018-Apr-19 23:28N 35°02' E 136°51'0 0.0
2018-Apr-19 22:55N 35°02' E 136°51'0 0.0
2018-Apr-19 22:25N 35°02' E 136°51'0 0.2
2018-Apr-19 21:59N 35°03' E 136°51'1 1.5
2018-Apr-19 21:30N 35°02' E 136°51'2 5.0
2018-Apr-19 21:00N 34°60' E 136°49'510.1
2018-Apr-19 20:30N 34°56' E 136°46'2 2.9
2018-Apr-19 19:59N 34°55' E 136°44'0 0.1
2018-Apr-19 19:30N 34°55' E 136°44'0 0.1
2018-Apr-19 19:00N 34°55' E 136°44'0 0.0
2018-Apr-19 18:29N 34°55' E 136°44'0 0.0
2018-Apr-19 17:59N 34°55' E 136°44'0 0.0
2018-Apr-19 17:29N 34°55' E 136°44'0 0.0
2018-Apr-19 17:00N 34°55' E 136°44'0 0.1
2018-Apr-19 16:30N 34°55' E 136°44'3 5.6
2018-Apr-19 16:00N 34°52' E 136°46'511.0
2018-Apr-19 15:30N 34°47' E 136°47'611.0
2018-Apr-19 14:58N 34°42' E 136°50'510.8
2018-Apr-19 14:30N 34°38' E 136°54'1710.3
2018-Apr-19 12:52N 34°30' E 137°12'511.1
2018-Apr-19 12:27N 34°30' E 137°18'2211.1
2018-Apr-19 10:30N 34°31' E 137°44'510.9
2018-Apr-19 10:00N 34°31' E 137°51'611.0
2018-Apr-19 09:25N 34°31' E 137°58'510.7
2018-Apr-19 08:58N 34°31' E 138°04'510.6
2018-Apr-19 08:30N 34°31' E 138°10'510.9
2018-Apr-19 08:00N 34°31' E 138°17'611.2
2018-Apr-19 07:29N 34°32' E 138°24'610.6
2018-Apr-19 06:57N 34°32' E 138°31'510.3
2018-Apr-19 06:30N 34°32' E 138°36'510.6
2018-Apr-19 06:00N 34°32' E 138°43'510.5
2018-Apr-19 05:30N 34°32' E 138°49'5 9.9
2018-Apr-19 05:00N 34°32' E 138°55'5 9.0
2018-Apr-19 04:29N 34°35' E 138°60'510.2
2018-Apr-19 03:59N 34°38' E 139°04'9 9.7
2018-Apr-19 03:03N 34°45' E 139°12'010.4
2018-Apr-19 03:00N 34°45' E 139°12'510.3
2018-Apr-19 02:30N 34°49' E 139°16'5 9.6
2018-Apr-19 02:00N 34°52' E 139°21'5 9.7
2018-Apr-19 01:30N 34°55' E 139°26'510.5
2018-Apr-19 01:00N 34°58' E 139°31'510.5
2018-Apr-19 00:31N 35°01' E 139°36'611.5
2018-Apr-18 23:59N 35°05' E 139°42'511.2
2018-Apr-18 23:29N 35°09' E 139°46'611.9
2018-Apr-18 23:00N 35°15' E 139°46'612.0
2018-Apr-18 22:30N 35°20' E 139°43'510.5
2018-Apr-18 22:00N 35°25' E 139°45'5 9.2
2018-Apr-18 21:31N 35°23' E 139°50'3 6.3
2018-Apr-18 21:00N 35°22' E 139°53'0 0.0
2018-Apr-18 20:25N 35°22' E 139°53'0 0.0
2018-Apr-18 19:55N 35°22' E 139°53'0 0.0
2018-Apr-18 19:28N 35°22' E 139°53'0 0.0
2018-Apr-18 18:58N 35°22' E 139°53'0 0.0
2018-Apr-18 18:28N 35°22' E 139°53'0 0.0
2018-Apr-18 17:58N 35°22' E 139°53'0 0.0
2018-Apr-18 17:26N 35°22' E 139°53'0 0.0
2018-Apr-18 16:59N 35°22' E 139°53'0 0.0
2018-Apr-18 16:28N 35°22' E 139°53'0 0.0
2018-Apr-18 15:58N 35°22' E 139°53'0 0.0
2018-Apr-18 15:29N 35°22' E 139°53'0 0.0
2018-Apr-18 14:55N 35°22' E 139°53'0 0.0
2018-Apr-18 14:28N 35°22' E 139°53'0 0.0
2018-Apr-18 13:58N 35°22' E 139°53'0 0.0
2018-Apr-18 13:28N 35°22' E 139°53'0 0.0
2018-Apr-18 12:58N 35°22' E 139°53'0 0.0
2018-Apr-18 12:28N 35°22' E 139°53'0 0.0
2018-Apr-18 11:58N 35°22' E 139°53'0 0.0
2018-Apr-18 11:29N 35°22' E 139°53'0 0.0
2018-Apr-18 10:58N 35°22' E 139°53'0 0.0
2018-Apr-18 10:29N 35°22' E 139°53'0 0.0
2018-Apr-18 09:52N 35°22' E 139°53'0 0.0
2018-Apr-18 09:25N 35°22' E 139°53'0 0.0
2018-Apr-18 08:59N 35°22' E 139°53'0 0.0
2018-Apr-18 08:25N 35°22' E 139°53'0 0.0
2018-Apr-18 07:58N 35°22' E 139°53'0 0.0
2018-Apr-18 07:28N 35°22' E 139°53'0 0.0
2018-Apr-18 06:58N 35°22' E 139°53'0 0.0
2018-Apr-18 06:25N 35°22' E 139°53'0 0.0
2018-Apr-18 05:59N 35°22' E 139°53'0 0.0
2018-Apr-18 05:29N 35°22' E 139°53'0 0.0
2018-Apr-18 04:58N 35°22' E 139°53'0 0.0
2018-Apr-18 04:25N 35°22' E 139°53'0 0.0
2018-Apr-18 03:55N 35°22' E 139°53'0 0.0
2018-Apr-18 03:28N 35°22' E 139°53'0 0.0
2018-Apr-18 02:55N 35°22' E 139°53'0 0.0
2018-Apr-18 02:26N 35°22' E 139°53'0 0.0
2018-Apr-18 01:55N 35°22' E 139°53'0 0.0
2018-Apr-18 01:25N 35°22' E 139°53'0 0.0
2018-Apr-18 00:59N 35°22' E 139°53'0 0.0
2018-Apr-18 00:26N 35°22' E 139°53'0 0.0
2018-Apr-17 23:56N 35°22' E 139°53'0 0.0
2018-Apr-17 23:29N 35°22' E 139°53'0 0.0
2018-Apr-17 22:55N 35°22' E 139°53'0 0.0
2018-Apr-17 22:26N 35°22' E 139°53'0 0.0
2018-Apr-17 21:59N 35°22' E 139°53'0 0.0
2018-Apr-17 21:28N 35°22' E 139°53'0 0.0
2018-Apr-17 20:58N 35°22' E 139°53'0 0.0
2018-Apr-17 20:29N 35°22' E 139°53'0 0.0
2018-Apr-17 19:59N 35°22' E 139°53'0 0.0
2018-Apr-17 19:23N 35°22' E 139°53'0 0.0
2018-Apr-17 18:59N 35°22' E 139°53'0 0.0
2018-Apr-17 18:23N 35°22' E 139°53'0 0.0
2018-Apr-17 17:56N 35°22' E 139°53'0 0.0
2018-Apr-17 17:29N 35°22' E 139°53'0 0.0
2018-Apr-17 16:59N 35°22' E 139°53'0 0.0
2018-Apr-17 16:29N 35°22' E 139°53'0 0.0
2018-Apr-17 15:59N 35°22' E 139°53'0 0.0
2018-Apr-17 15:28N 35°22' E 139°53'0 0.0
2018-Apr-17 14:53N 35°22' E 139°53'0 0.0
2018-Apr-17 14:28N 35°22' E 139°53'0 0.0
2018-Apr-17 13:56N 35°22' E 139°53'0 0.0
2018-Apr-17 13:26N 35°22' E 139°53'0 0.0
2018-Apr-17 12:59N 35°22' E 139°53'0 0.0
2018-Apr-17 12:29N 35°22' E 139°53'0 0.0
2018-Apr-17 11:59N 35°22' E 139°53'0 0.0
2018-Apr-17 11:25N 35°22' E 139°53'0 0.0
2018-Apr-17 10:59N 35°22' E 139°53'0 0.0
2018-Apr-17 10:29N 35°22' E 139°53'0 0.0
2018-Apr-17 09:59N 35°22' E 139°53'0 0.0
2018-Apr-17 09:29N 35°22' E 139°53'0 0.0
2018-Apr-17 08:59N 35°22' E 139°53'0 0.0
2018-Apr-17 08:29N 35°22' E 139°53'0 0.0
2018-Apr-17 07:53N 35°22' E 139°53'0 0.0
2018-Apr-17 07:29N 35°22' E 139°53'0 0.0
2018-Apr-17 06:59N 35°22' E 139°53'0 0.0
2018-Apr-17 06:29N 35°22' E 139°53'0 0.0
2018-Apr-17 05:50N 35°22' E 139°53'0 0.0
2018-Apr-17 05:26N 35°22' E 139°53'0 0.0
2018-Apr-17 04:55N 35°22' E 139°53'0 0.0
2018-Apr-17 04:25N 35°22' E 139°53'0 0.0
2018-Apr-17 03:59N 35°22' E 139°53'0 0.0
2018-Apr-17 03:28N 35°22' E 139°53'0 0.0
2018-Apr-17 02:56N 35°22' E 139°53'0 0.0
2018-Apr-17 02:26N 35°22' E 139°53'0 0.0
2018-Apr-17 01:50N 35°22' E 139°53'0 0.0
2018-Apr-17 01:22N 35°22' E 139°53'0 0.0
2018-Apr-17 00:58N 35°22' E 139°53'0 0.0
2018-Apr-17 00:28N 35°22' E 139°53'0 0.0
2018-Apr-16 23:58N 35°22' E 139°53'0 0.0
2018-Apr-16 23:28N 35°22' E 139°53'0 0.0
2018-Apr-16 22:58N 35°22' E 139°53'0 0.1
2018-Apr-16 22:26N 35°22' E 139°53'0 0.1
2018-Apr-16 21:56N 35°22' E 139°53'0 0.0
2018-Apr-16 21:25N 35°22' E 139°53'0 0.0
2018-Apr-16 20:58N 35°22' E 139°53'0 0.0
2018-Apr-16 20:28N 35°22' E 139°53'0 0.0
2018-Apr-16 19:58N 35°22' E 139°53'0 0.0
2018-Apr-16 19:28N 35°22' E 139°53'0 0.0
2018-Apr-16 18:59N 35°22' E 139°53'0 0.0
2018-Apr-16 18:28N 35°22' E 139°53'0 0.0
2018-Apr-16 17:58N 35°22' E 139°53'0 0.0
2018-Apr-16 17:28N 35°22' E 139°53'0 0.0
2018-Apr-16 16:59N 35°22' E 139°53'0 0.0
2018-Apr-16 16:29N 35°22' E 139°53'0 0.0
2018-Apr-16 15:59N 35°22' E 139°53'0 0.0
2018-Apr-16 15:28N 35°22' E 139°53'0 0.0
2018-Apr-16 14:59N 35°22' E 139°53'0 0.0
2018-Apr-16 14:28N 35°22' E 139°53'0 0.0
2018-Apr-16 13:58N 35°22' E 139°53'0 0.0
2018-Apr-16 13:28N 35°22' E 139°53'0 0.0
2018-Apr-16 12:58N 35°22' E 139°53'0 0.0
2018-Apr-16 12:28N 35°22' E 139°53'0 0.0
2018-Apr-16 11:58N 35°22' E 139°53'0 0.0
2018-Apr-16 11:28N 35°22' E 139°53'0 0.0
2018-Apr-16 10:59N 35°22' E 139°53'0 0.0
2018-Apr-16 10:29N 35°22' E 139°53'0 0.0
2018-Apr-16 09:58N 35°22' E 139°53'0 0.0
2018-Apr-16 09:25N 35°22' E 139°53'0 0.0
2018-Apr-16 08:58N 35°22' E 139°53'0 0.0
2018-Apr-16 08:28N 35°22' E 139°53'0 0.0
2018-Apr-16 07:58N 35°22' E 139°53'0 0.0
2018-Apr-16 07:29N 35°22' E 139°53'0 0.0
2018-Apr-16 06:58N 35°22' E 139°53'0 0.0
2018-Apr-16 06:28N 35°22' E 139°53'0 0.0
2018-Apr-16 05:58N 35°22' E 139°53'0 0.0
2018-Apr-16 05:28N 35°22' E 139°53'0 0.0
2018-Apr-16 04:58N 35°22' E 139°53'0 0.0
2018-Apr-16 04:28N 35°22' E 139°53'0 0.0
2018-Apr-16 03:59N 35°22' E 139°53'0 0.0
2018-Apr-16 03:28N 35°22' E 139°53'0 0.0
2018-Apr-16 02:58N 35°22' E 139°53'0 0.0
2018-Apr-16 02:28N 35°22' E 139°53'0 0.0
2018-Apr-16 01:55N 35°22' E 139°53'0 0.0
2018-Apr-16 01:28N 35°22' E 139°53'0 0.0
2018-Apr-16 00:58N 35°22' E 139°53'0 0.0
2018-Apr-16 00:28N 35°22' E 139°53'0 0.0
2018-Apr-15 23:58N 35°22' E 139°53'0 0.0
2018-Apr-15 23:26N 35°22' E 139°53'0 0.0
2018-Apr-15 22:58N 35°22' E 139°53'0 0.0
2018-Apr-15 22:28N 35°22' E 139°53'0 0.0
2018-Apr-15 21:58N 35°22' E 139°53'0 0.0
2018-Apr-15 21:28N 35°22' E 139°53'0 0.0
2018-Apr-15 20:59N 35°22' E 139°53'0 0.0
2018-Apr-15 20:29N 35°22' E 139°53'0 0.0
2018-Apr-15 19:58N 35°22' E 139°53'0 0.0
2018-Apr-15 19:28N 35°22' E 139°53'0 0.0
2018-Apr-15 18:58N 35°22' E 139°53'0 0.0
2018-Apr-15 18:28N 35°22' E 139°53'0 0.0
2018-Apr-15 17:59N 35°22' E 139°53'0 0.0
2018-Apr-15 17:28N 35°22' E 139°53'0 0.0
2018-Apr-15 16:58N 35°22' E 139°53'0 0.0
2018-Apr-15 16:28N 35°22' E 139°53'0 0.0
2018-Apr-15 15:58N 35°22' E 139°53'0 0.0
2018-Apr-15 15:29N 35°22' E 139°53'0 0.0
2018-Apr-15 14:55N 35°22' E 139°53'0 0.0
2018-Apr-15 14:29N 35°22' E 139°53'0 0.0
2018-Apr-15 13:58N 35°22' E 139°53'0 0.0
2018-Apr-15 13:28N 35°22' E 139°53'0 0.0
2018-Apr-15 12:58N 35°22' E 139°53'0 0.0
2018-Apr-15 12:28N 35°22' E 139°53'0 0.0
2018-Apr-15 11:55N 35°22' E 139°53'0 0.0
2018-Apr-15 11:28N 35°22' E 139°53'0 0.0
2018-Apr-15 10:58N 35°22' E 139°53'0 0.0
2018-Apr-15 10:28N 35°22' E 139°53'0 0.0
2018-Apr-15 09:58N 35°22' E 139°53'0 0.0
2018-Apr-15 09:28N 35°22' E 139°53'0 0.0
2018-Apr-15 08:59N 35°22' E 139°53'0 0.0
2018-Apr-15 08:28N 35°22' E 139°53'0 0.0
2018-Apr-15 07:58N 35°22' E 139°53'0 0.0
2018-Apr-15 07:29N 35°22' E 139°53'0 0.0
2018-Apr-15 06:58N 35°22' E 139°53'0 0.0
2018-Apr-15 06:29N 35°22' E 139°53'0 0.0
2018-Apr-15 05:55N 35°22' E 139°53'0 0.0
2018-Apr-15 05:28N 35°22' E 139°53'0 0.0
2018-Apr-15 04:58N 35°22' E 139°53'0 0.0
2018-Apr-15 04:28N 35°22' E 139°53'0 0.0
2018-Apr-15 03:59N 35°22' E 139°53'0 0.0
2018-Apr-15 03:28N 35°22' E 139°53'0 0.0
2018-Apr-15 02:59N 35°22' E 139°53'0 0.0
2018-Apr-15 02:28N 35°22' E 139°53'0 0.0
2018-Apr-15 01:58N 35°22' E 139°53'0 0.0
2018-Apr-15 01:28N 35°22' E 139°53'0 0.0
2018-Apr-15 00:56N 35°22' E 139°53'0 0.0
2018-Apr-15 00:28N 35°22' E 139°53'0 0.0
2018-Apr-14 23:59N 35°22' E 139°53'0 0.0
2018-Apr-14 23:28N 35°22' E 139°53'0 0.0
2018-Apr-14 22:58N 35°22' E 139°53'0 0.0
2018-Apr-14 22:28N 35°22' E 139°53'0 0.0
2018-Apr-14 21:59N 35°22' E 139°53'0 0.0
2018-Apr-14 21:28N 35°22' E 139°53'0 0.0
2018-Apr-14 20:59N 35°22' E 139°53'0 0.0
2018-Apr-14 20:28N 35°22' E 139°53'0 0.0
2018-Apr-14 19:59N 35°22' E 139°53'0 0.0
2018-Apr-14 19:28N 35°22' E 139°53'0 0.0
2018-Apr-14 18:59N 35°22' E 139°53'0 0.0
2018-Apr-14 18:28N 35°22' E 139°53'0 0.0
2018-Apr-14 17:58N 35°22' E 139°53'0 0.0
2018-Apr-14 17:28N 35°22' E 139°53'0 0.0
2018-Apr-14 16:59N 35°22' E 139°53'0 0.0
2018-Apr-14 16:28N 35°22' E 139°53'0 0.0
2018-Apr-14 15:56N 35°22' E 139°53'0 0.0
2018-Apr-14 15:29N 35°22' E 139°53'0 0.0
2018-Apr-14 14:58N 35°22' E 139°53'0 0.0
2018-Apr-14 14:28N 35°22' E 139°53'  

Dump ship's entire track history